^^
Saratoga-Weather Station Historical Data
Daily Summary for January 12, 2021 Units:  Metric    English   Both
Daily Weekly Monthly Yearly Custom
  High: Low: Average:
Temperature: 17.7 °C 9 °C 12.9 °C
Dew Point: 10 °C 5.6 °C 7.8 °C
Humidity: 93% 46% 74%
Wind Speed: 17.7km/h 0km/h 4km/h
Wind Gust: 19.3km/h - -
Wind- - West
Pressure: 1012.9 hPa 1008.8 hPa -
Precipitation: 0.0 mm    
Historical Graphs
 
 
Tabular Data for January 12, 2021
Time Temperature Dew Point Pressure Wind Wind Speed Wind Gust Humidity Rainfall Rate (Hourly) solar
00:03 10.9 °C 9.7 °C 1011.5 hPa NW 4.7 km/h 16.1 km/h 92% 0.0 mm 0 W/m2
00:08 10.9 °C 9.7 °C 1011.5 hPa West 6.4 km/h 16.1 km/h 92% 0.0 mm 0 W/m2
00:13 10.9 °C 9.7 °C 1011.5 hPa SW 7.9 km/h 17.7 km/h 92% 0.0 mm 0 W/m2
00:18 10.9 °C 9.7 °C 1011.5 hPa WSW 6.4 km/h 14.5 km/h 92% 0.0 mm 0 W/m2
00:23 10.9 °C 9.7 °C 1011.5 hPa West 3.2 km/h 11.3 km/h 92% 0.0 mm 0 W/m2
00:28 10.9 °C 9.7 °C 1011.9 hPa WNW 11.1 km/h 16.1 km/h 92% 0.0 mm 0 W/m2
00:33 10.9 °C 9.7 °C 1011.5 hPa West 9.7 km/h 14.5 km/h 92% 0.0 mm 0 W/m2
00:38 10.9 °C 9.8 °C 1011.9 hPa NW 1.4 km/h 14.5 km/h 93% 0.0 mm 0 W/m2
00:43 10.9 °C 9.8 °C 1011.9 hPa WNW 7.9 km/h 12.9 km/h 93% 0.0 mm 0 W/m2
00:48 10.9 °C 9.8 °C 1011.9 hPa WNW 11.1 km/h 14.5 km/h 93% 0.0 mm 0 W/m2
00:53 10.8 °C 9.7 °C 1011.9 hPa West 13 km/h 16.1 km/h 93% 0.0 mm 0 W/m2
00:58 10.8 °C 9.7 °C 1011.9 hPa WNW 3.2 km/h 16.1 km/h 93% 0.0 mm 0 W/m2
01:03 10.8 °C 9.6 °C 1011.9 hPa WNW 11.1 km/h 14.5 km/h 92% 0.0 mm 0 W/m2
01:08 10.8 °C 9.6 °C 1011.9 hPa WSW 6.4 km/h 12.9 km/h 92% 0.0 mm 0 W/m2
01:23 10.7 °C 9.3 °C 1011.9 hPa WNW 4.7 km/h 16.1 km/h 91% 0.0 mm 0 W/m2
01:28 10.7 °C 9.5 °C 1011.9 hPa WNW 13 km/h 14.5 km/h 92% 0.0 mm 0 W/m2
02:18 10.3 °C 8.9 °C 1011.9 hPa NW 3.2 km/h 4.8 km/h 91% 0.0 mm 0 W/m2
02:23 10.3 °C 8.9 °C 1012.2 hPa WNW 4.7 km/h 9.7 km/h 91% 0.0 mm 0 W/m2
02:28 10.3 °C 8.9 °C 1012.2 hPa West 6.4 km/h 6.4 km/h 91% 0.0 mm 0 W/m2
02:33 10.3 °C 9.1 °C 1012.2 hPa WSW 4.7 km/h 9.7 km/h 92% 0.0 mm 0 W/m2
02:38 10.3 °C 9.1 °C 1012.2 hPa WNW 4.7 km/h 11.3 km/h 92% 0.0 mm 0 W/m2
02:43 10.3 °C 9.1 °C 1012.2 hPa West 6.4 km/h 14.5 km/h 92% 0.0 mm 0 W/m2
02:48 10.3 °C 9.1 °C 1012.2 hPa WNW 4.7 km/h 4.8 km/h 92% 0.0 mm 0 W/m2
02:53 10.3 °C 9.1 °C 1012.2 hPa WNW 6.4 km/h 11.3 km/h 92% 0.0 mm 0 W/m2
02:58 10.3 °C 9.1 °C 1012.2 hPa WSW 6.4 km/h 9.7 km/h 92% 0.0 mm 0 W/m2
03:03 10.3 °C 9.1 °C 1012.2 hPa WNW 4.7 km/h 12.9 km/h 92% 0.0 mm 0 W/m2
03:08 10.3 °C 9.1 °C 1012.2 hPa West 6.4 km/h 11.3 km/h 92% 0.0 mm 0 W/m2
03:13 10.3 °C 9.1 °C 1012.2 hPa West 6.4 km/h 6.4 km/h 92% 0.0 mm 0 W/m2
03:18 10.3 °C 9.1 °C 1012.2 hPa NW 3.2 km/h 12.9 km/h 92% 0.0 mm 0 W/m2
03:23 10.3 °C 9.1 °C 1012.2 hPa WNW 3.2 km/h 12.9 km/h 92% 0.0 mm 0 W/m2
03:28 10.3 °C 9.1 °C 1012.2 hPa NW 7.9 km/h 12.9 km/h 92% 0.0 mm 0 W/m2
03:33 10.3 °C 8.9 °C 1012.2 hPa WNW 3.2 km/h 6.4 km/h 91% 0.0 mm 0 W/m2
03:38 10.3 °C 8.9 °C 1012.2 hPa Calm   12.9 km/h 91% 0.0 mm 0 W/m2
03:43 10.2 °C 8.8 °C 1012.2 hPa WSW 4.7 km/h 8 km/h 91% 0.0 mm 0 W/m2
03:48 10.2 °C 8.8 °C 1012.2 hPa Calm   9.7 km/h 91% 0.0 mm 0 W/m2
03:53 10.2 °C 9 °C 1012.2 hPa West 3.2 km/h 3.2 km/h 92% 0.0 mm 0 W/m2
03:58 10.2 °C 9 °C 1012.2 hPa West 3.2 km/h 6.4 km/h 92% 0.0 mm 0 W/m2
04:03 10.2 °C 9 °C 1012.2 hPa WNW 3.2 km/h 3.2 km/h 92% 0.0 mm 0 W/m2
04:08 10.2 °C 9 °C 1012.2 hPa Calm   3.2 km/h 92% 0.0 mm 0 W/m2
04:13 10.2 °C 9 °C 1012.2 hPa Calm   3.2 km/h 92% 0.0 mm 0 W/m2
04:18 10.2 °C 9 °C 1012.2 hPa West 3.2 km/h 9.7 km/h 92% 0.0 mm 0 W/m2
04:23 10.1 °C 8.9 °C 1012.2 hPa West 3.2 km/h 6.4 km/h 92% 0.0 mm 0 W/m2
04:28 10.1 °C 8.9 °C 1012.2 hPa West 3.2 km/h 8 km/h 92% 0.0 mm 0 W/m2
04:33 10.1 °C 8.9 °C 1011.9 hPa SW 6.4 km/h 8 km/h 92% 0.0 mm 0 W/m2
04:38 10.1 °C 8.9 °C 1011.9 hPa WNW 1.4 km/h 4.8 km/h 92% 0.0 mm 0 W/m2
04:43 10 °C 8.8 °C 1011.9 hPa West 3.2 km/h 12.9 km/h 92% 0.0 mm 0 W/m2
04:48 10 °C 8.6 °C 1011.9 hPa West 3.2 km/h 4.8 km/h 91% 0.0 mm 0 W/m2
04:53 10 °C 8.6 °C 1011.9 hPa West 4.7 km/h 12.9 km/h 91% 0.0 mm 0 W/m2
04:58 9.9 °C 8.5 °C 1011.9 hPa WSW 4.7 km/h 14.5 km/h 91% 0.0 mm 0 W/m2
05:03 9.9 °C 8.5 °C 1012.2 hPa West 9.7 km/h 11.3 km/h 91% 0.0 mm 0 W/m2
05:08 9.9 °C 8.5 °C 1011.9 hPa West 4.7 km/h 11.3 km/h 91% 0.0 mm 0 W/m2
05:13 9.9 °C 8.5 °C 1012.2 hPa WSW 4.7 km/h 12.9 km/h 91% 0.0 mm 0 W/m2
05:18 9.9 °C 8.5 °C 1012.2 hPa West 3.2 km/h 6.4 km/h 91% 0.0 mm 0 W/m2
05:23 9.9 °C 8.5 °C 1012.2 hPa West 9.7 km/h 12.9 km/h 91% 0.0 mm 0 W/m2
05:29 9.8 °C 8.4 °C 1012.2 hPa WNW 4.7 km/h 8 km/h 91% 0.0 mm 0 W/m2
05:34 9.8 °C 8.4 °C 1012.2 hPa West 6.4 km/h 12.9 km/h 91% 0.0 mm 0 W/m2
05:39 9.8 °C 8.4 °C 1012.2 hPa WSW 7.9 km/h 16.1 km/h 91% 0.0 mm 0 W/m2
05:44 9.8 °C 8.4 °C 1011.9 hPa West 3.2 km/h 6.4 km/h 91% 0.0 mm 0 W/m2
05:49 9.8 °C 8.4 °C 1012.2 hPa West 4.7 km/h 16.1 km/h 91% 0.0 mm 0 W/m2
05:54 9.7 °C 8.3 °C 1012.2 hPa West 1.4 km/h 14.5 km/h 91% 0.0 mm 0 W/m2
05:59 9.7 °C 8.3 °C 1012.2 hPa West 4.7 km/h 9.7 km/h 91% 0.0 mm 0 W/m2
06:04 9.7 °C 8.3 °C 1012.2 hPa WSW 3.2 km/h 14.5 km/h 91% 0.0 mm 0 W/m2
06:09 9.7 °C 8.3 °C 1012.2 hPa West 3.2 km/h 6.4 km/h 91% 0.0 mm 0 W/m2
06:14 9.7 °C 8.3 °C 1012.2 hPa West 3.2 km/h 9.7 km/h 91% 0.0 mm 5 W/m2
06:19 9.7 °C 8.3 °C 1012.2 hPa WNW 4.7 km/h 6.4 km/h 91% 0.0 mm 7 W/m2
06:24 9.7 °C 8.3 °C 1012.5 hPa Calm   4.8 km/h 91% 0.0 mm 9 W/m2
06:29 9.7 °C 8.3 °C 1012.5 hPa West 1.4 km/h 6.4 km/h 91% 0.0 mm 14 W/m2
06:34 9.7 °C 8.3 °C 1012.5 hPa WNW 1.4 km/h 4.8 km/h 91% 0.0 mm 16 W/m2
06:39 9.6 °C 8.2 °C 1012.5 hPa NW 1.4 km/h 6.4 km/h 91% 0.0 mm 16 W/m2
06:44 9.6 °C 8.2 °C 1012.5 hPa West 3.2 km/h 4.8 km/h 91% 0.0 mm 19 W/m2
06:49 9.6 °C 8.2 °C 1012.5 hPa West 4.7 km/h 11.3 km/h 91% 0.0 mm 18 W/m2
06:54 9.5 °C 8.1 °C 1012.5 hPa WNW 4.7 km/h 9.7 km/h 91% 0.0 mm 14 W/m2
06:59 9.4 °C 8 °C 1012.5 hPa WNW 3.2 km/h 11.3 km/h 91% 0.0 mm 18 W/m2
07:04 9.3 °C 7.9 °C 1012.5 hPa NW 3.2 km/h 9.7 km/h 91% 0.0 mm 21 W/m2
07:09 9.3 °C 7.9 °C 1012.5 hPa West 6.4 km/h 9.7 km/h 91% 0.0 mm 53 W/m2
07:14 9.3 °C 7.9 °C 1012.2 hPa WNW 7.9 km/h 11.3 km/h 91% 0.0 mm 54 W/m2
07:19 9.3 °C 8.1 °C 1012.5 hPa WNW 3.2 km/h 11.3 km/h 92% 0.0 mm 47 W/m2
07:24 9.4 °C 8.2 °C 1012.5 hPa WNW 11.1 km/h 12.9 km/h 92% 0.0 mm 76 W/m2
07:29 9.6 °C 8.2 °C 1012.5 hPa West 9.7 km/h 16.1 km/h 91% 0.0 mm 77 W/m2
07:34 9.6 °C 8.2 °C 1012.5 hPa NW 6.4 km/h 12.9 km/h 91% 0.0 mm 97 W/m2
07:39 9.7 °C 8.1 °C 1012.5 hPa WSW 6.4 km/h 12.9 km/h 90% 0.0 mm 105 W/m2
07:44 9.7 °C 8.1 °C 1012.5 hPa WNW 4.7 km/h 12.9 km/h 90% 0.0 mm 121 W/m2
07:49 9.7 °C 8.1 °C 1012.5 hPa NW 4.7 km/h 11.3 km/h 90% 0.0 mm 118 W/m2
07:54 9.8 °C 8.2 °C 1012.5 hPa West 11.1 km/h 16.1 km/h 90% 0.0 mm 120 W/m2
07:59 9.7 °C 8.1 °C 1012.2 hPa NW 3.2 km/h 17.7 km/h 90% 0.0 mm 130 W/m2
08:04 9.7 °C 8.1 °C 1012.2 hPa WNW 7.9 km/h 9.7 km/h 90% 0.0 mm 135 W/m2
08:09 9.8 °C 8.2 °C 1012.5 hPa South 7.9 km/h 17.7 km/h 90% 0.0 mm 120 W/m2
08:14 9.8 °C 8.1 °C 1012.5 hPa WSW 3.2 km/h 9.7 km/h 89% 0.0 mm 104 W/m2
08:19 9.8 °C 8.1 °C 1012.5 hPa WNW 6.4 km/h 16.1 km/h 89% 0.0 mm 105 W/m2
08:24 9.7 °C 8 °C 1012.5 hPa NW 6.4 km/h 14.5 km/h 89% 0.0 mm 98 W/m2
08:29 9.7 °C 7.8 °C 1012.2 hPa WNW 4.7 km/h 14.5 km/h 88% 0.0 mm 93 W/m2
08:34 9.8 °C 7.9 °C 1012.5 hPa WSW 3.2 km/h 12.9 km/h 88% 0.0 mm 76 W/m2
08:39 9.9 °C 8.2 °C 1012.2 hPa WNW 3.2 km/h 11.3 km/h 89% 0.0 mm 74 W/m2
08:44 10.2 °C 8.1 °C 1012.2 hPa WNW 14.3 km/h 14.5 km/h 87% 0.0 mm 100 W/m2
08:49 10.3 °C 8.2 °C 1012.5 hPa WNW 6.4 km/h 14.5 km/h 87% 0.0 mm 272 W/m2
08:54 10.4 °C 8.3 °C 1012.2 hPa West 3.2 km/h 4.8 km/h 87% 0.0 mm 141 W/m2
08:59 10.6 °C 8.4 °C 1012.2 hPa WSW 7.9 km/h 11.3 km/h 86% 0.0 mm 134 W/m2
09:04 10.5 °C 8.3 °C 1012.5 hPa Calm   8 km/h 86% 0.0 mm 181 W/m2
09:09 10.5 °C 8.4 °C 1012.5 hPa Calm   11.3 km/h 87% 0.0 mm 118 W/m2
09:14 10.6 °C 8.5 °C 1012.5 hPa NNE 3.2 km/h 3.2 km/h 87% 0.0 mm 102 W/m2
09:19 10.7 °C 8.6 °C 1012.5 hPa NE 1.4 km/h 1.6 km/h 87% 0.0 mm 148 W/m2
09:24 10.8 °C 8.7 °C 1012.5 hPa Calm   9.7 km/h 87% 0.0 mm 107 W/m2
09:29 10.7 °C 8.5 °C 1012.5 hPa WSW 6.4 km/h 6.4 km/h 86% 0.0 mm 139 W/m2
09:34 10.7 °C 8.3 °C 1012.5 hPa West 1.4 km/h 3.2 km/h 85% 0.0 mm 211 W/m2
09:39 10.8 °C 8.6 °C 1012.9 hPa WNW 3.2 km/h 9.7 km/h 86% 0.0 mm 146 W/m2
09:44 10.7 °C 8.5 °C 1012.5 hPa WNW 4.7 km/h 8 km/h 86% 0.0 mm 197 W/m2
09:49 10.7 °C 8.5 °C 1012.5 hPa West 4.7 km/h 12.9 km/h 86% 0.0 mm 253 W/m2
09:54 10.8 °C 8.6 °C 1012.5 hPa NW 6.4 km/h 6.4 km/h 86% 0.0 mm 733 W/m2
09:59 11.2 °C 8.6 °C 1012.9 hPa WSW 3.2 km/h 12.9 km/h 84% 0.0 mm 401 W/m2
10:04 11.3 °C 8.7 °C 1012.5 hPa WSW 3.2 km/h 11.3 km/h 84% 0.0 mm 255 W/m2
10:09 11.3 °C 8.7 °C 1012.5 hPa NW 3.2 km/h 4.8 km/h 84% 0.0 mm 364 W/m2
10:14 11.3 °C 8.7 °C 1012.5 hPa WNW 6.4 km/h 11.3 km/h 84% 0.0 mm 366 W/m2
10:19 11.4 °C 8.8 °C 1012.5 hPa West 4.7 km/h 9.7 km/h 84% 0.0 mm 255 W/m2
10:24 11.4 °C 8.6 °C 1012.5 hPa WSW 1.4 km/h 8 km/h 83% 0.0 mm 197 W/m2
10:29 11.5 °C 8.7 °C 1012.5 hPa NE 3.2 km/h 3.2 km/h 83% 0.0 mm 677 W/m2
10:34 11.7 °C 8.7 °C 1012.2 hPa SW 1.4 km/h 9.7 km/h 82% 0.0 mm 733 W/m2
10:39 11.9 °C 8.7 °C 1012.5 hPa West 4.7 km/h 9.7 km/h 81% 0.0 mm 304 W/m2
10:44 12 °C 8.8 °C 1012.2 hPa WNW 7.9 km/h 14.5 km/h 81% 0.0 mm 357 W/m2
10:49 12.2 °C 8.9 °C 1012.2 hPa Calm   8 km/h 80% 0.0 mm 214 W/m2
10:54 12.2 °C 8.5 °C 1012.2 hPa West 1.4 km/h 12.9 km/h 78% 0.0 mm 211 W/m2
10:59 12.2 °C 8.7 °C 1012.2 hPa West 6.4 km/h 9.7 km/h 79% 0.0 mm 227 W/m2
11:04 12.2 °C 8.7 °C 1012.2 hPa NW 3.2 km/h 12.9 km/h 79% 0.0 mm 341 W/m2
11:09 12.1 °C 8.2 °C 1012.2 hPa WSW 4.7 km/h 9.7 km/h 77% 0.0 mm 278 W/m2
11:14 12.1 °C 8.4 °C 1012.2 hPa WSW 3.2 km/h 12.9 km/h 78% 0.0 mm 323 W/m2
11:19 12.3 °C 8.8 °C 1012.2 hPa WNW 1.4 km/h 9.7 km/h 79% 0.0 mm 926 W/m2
11:24 12.7 °C 9 °C 1011.9 hPa WSW 9.7 km/h 11.3 km/h 78% 0.0 mm 410 W/m2
11:29 12.9 °C 8.8 °C 1011.9 hPa WSW 1.4 km/h 8 km/h 76% 0.0 mm 1048 W/m2
11:34 13.2 °C 9.1 °C 1011.9 hPa West 4.7 km/h 4.8 km/h 76% 0.0 mm 988 W/m2
11:39 13.4 °C 8.9 °C 1011.9 hPa WNW 16.3 km/h 17.7 km/h 74% 0.0 mm 1041 W/m2
11:44 13.7 °C 9.5 °C 1011.9 hPa NE 3.2 km/h 6.4 km/h 76% 0.0 mm 1034 W/m2
11:49 14 °C 9.2 °C 1011.9 hPa WNW 4.7 km/h 17.7 km/h 73% 0.0 mm 740 W/m2
11:54 14.3 °C 9.3 °C 1011.9 hPa West 13 km/h 12.9 km/h 72% 0.0 mm 506 W/m2
11:59 14.3 °C 8.9 °C 1011.5 hPa West 11.1 km/h 14.5 km/h 70% 0.0 mm 204 W/m2
12:04 13.8 °C 8.4 °C 1011.9 hPa WNW 4.7 km/h 11.3 km/h 70% 0.0 mm 257 W/m2
12:09 13.5 °C 7.9 °C 1011.5 hPa NNE 1.4 km/h 4.8 km/h 69% 0.0 mm 322 W/m2
12:14 13.4 °C 8.2 °C 1011.9 hPa WNW 4.7 km/h 9.7 km/h 71% 0.0 mm 309 W/m2
12:19 13.5 °C 8.3 °C 1011.5 hPa NW 14.5 km/h 14.5 km/h 71% 0.0 mm 355 W/m2
12:24 13.4 °C 8.2 °C 1011.5 hPa WNW 3.2 km/h 9.7 km/h 71% 0.0 mm 548 W/m2
12:29 13.5 °C 8.3 °C 1011.5 hPa West 3.2 km/h 6.4 km/h 71% 0.0 mm 749 W/m2
12:34 13.8 °C 8.2 °C 1011.2 hPa West 9.7 km/h 16.1 km/h 69% 0.0 mm 786 W/m2
12:39 13.9 °C 8.7 °C 1011.5 hPa WNW 6.4 km/h 11.3 km/h 71% 0.0 mm 506 W/m2
12:45 13.9 °C 8.7 °C 1011.5 hPa WSW 6.4 km/h 12.9 km/h 71% 0.0 mm 529 W/m2
12:50 14.2 °C 9 °C 1011.2 hPa NW 4.7 km/h 12.9 km/h 71% 0.0 mm 1165 W/m2
12:55 14.7 °C 9.3 °C 1011.2 hPa WNW 3.2 km/h 8 km/h 70% 0.0 mm 993 W/m2
13:00 15.2 °C 10 °C 1011.2 hPa SW 4.7 km/h 12.9 km/h 71% 0.0 mm 1039 W/m2
13:05 15.5 °C 9.4 °C 1011.2 hPa West 3.2 km/h 11.3 km/h 67% 0.0 mm 1039 W/m2
13:10 15.1 °C 7.9 °C 1011.2 hPa SE 1.4 km/h 12.9 km/h 62% 0.0 mm 236 W/m2
13:15 14.8 °C 8.1 °C 1011.2 hPa West 4.7 km/h 11.3 km/h 64% 0.0 mm 279 W/m2
13:20 14.6 °C 7.9 °C 1011.2 hPa WNW 3.2 km/h 9.7 km/h 64% 0.0 mm 1037 W/m2
13:25 14.8 °C 7.8 °C 1011.2 hPa WSW 7.9 km/h 11.3 km/h 63% 0.0 mm 1053 W/m2
13:30 15.2 °C 8.2 °C 1010.8 hPa ENE 1.4 km/h 4.8 km/h 63% 0.0 mm 1039 W/m2
13:35 15.4 °C 7.7 °C 1010.8 hPa West 9.7 km/h 14.5 km/h 60% 0.0 mm 821 W/m2
13:40 15.3 °C 7.8 °C 1010.8 hPa WNW 17.7 km/h 17.7 km/h 61% 0.0 mm 385 W/m2
13:45 15.3 °C 7.1 °C 1010.8 hPa WSW 7.9 km/h 12.9 km/h 58% 0.0 mm 1076 W/m2
13:50 15.4 °C 8.4 °C 1010.8 hPa NW 1.4 km/h 16.1 km/h 63% 0.0 mm 1071 W/m2
13:55 15.7 °C 7.7 °C 1010.8 hPa West 3.2 km/h 11.3 km/h 59% 0.0 mm 1074 W/m2
14:00 16 °C 8 °C 1010.8 hPa WNW 4.7 km/h 19.3 km/h 59% 0.0 mm 1090 W/m2
14:05 16.1 °C 8.1 °C 1010.8 hPa WNW 6.4 km/h 12.9 km/h 59% 0.0 mm 969 W/m2
14:10 16.1 °C 8.3 °C 1010.8 hPa West 16.3 km/h 19.3 km/h 60% 0.0 mm 802 W/m2
14:15 15.9 °C 7.9 °C 1010.8 hPa West 9.7 km/h 14.5 km/h 59% 0.0 mm 742 W/m2
14:20 15.9 °C 7.4 °C 1010.5 hPa WNW 7.9 km/h 9.7 km/h 57% 0.0 mm 765 W/m2
14:25 15.8 °C 7.3 °C 1010.8 hPa WSW 3.2 km/h 17.7 km/h 57% 0.0 mm 705 W/m2
14:30 15.7 °C 7.2 °C 1010.5 hPa West 3.2 km/h 8 km/h 57% 0.0 mm 707 W/m2
14:35 15.9 °C 7.6 °C 1010.8 hPa WNW 11.1 km/h 17.7 km/h 58% 0.0 mm 947 W/m2
14:40 15.9 °C 7.4 °C 1010.8 hPa NW 7.9 km/h 12.9 km/h 57% 0.0 mm 928 W/m2
14:45 16.1 °C 7.3 °C 1010.5 hPa NNW 1.4 km/h 9.7 km/h 56% 0.0 mm 933 W/m2
14:50 16.2 °C 6.6 °C 1010.5 hPa West 1.4 km/h 9.7 km/h 53% 0.0 mm 1011 W/m2
14:55 16.2 °C 6.6 °C 1010.5 hPa WNW 4.7 km/h 11.3 km/h 53% 0.0 mm 251 W/m2
15:00 16.4 °C 7.1 °C 1010.2 hPa WSW 7.9 km/h 12.9 km/h 54% 0.0 mm 1060 W/m2
15:05 16.5 °C 6.9 °C 1010.5 hPa ESE 4.7 km/h 11.3 km/h 53% 0.0 mm 1004 W/m2
15:10 16.3 °C 5.9 °C 1010.5 hPa WNW 4.7 km/h 12.9 km/h 50% 0.0 mm 174 W/m2
15:15 16.1 °C 6.5 °C 1010.5 hPa East 6.4 km/h 11.3 km/h 53% 0.0 mm 954 W/m2
15:20 16.2 °C 6.6 °C 1010.2 hPa East 1.4 km/h 6.4 km/h 53% 0.0 mm 200 W/m2
15:25 16.3 °C 5.9 °C 1010.2 hPa West 4.7 km/h 11.3 km/h 50% 0.0 mm 148 W/m2
15:30 16.2 °C 6.1 °C 1010.2 hPa WNW 6.4 km/h 14.5 km/h 51% 0.0 mm 158 W/m2
15:35 16.1 °C 6 °C 1010.2 hPa WNW 1.4 km/h 8 km/h 51% 0.0 mm 287 W/m2
15:40 16.3 °C 5.6 °C 1010.2 hPa ESE 3.2 km/h 3.2 km/h 49% 0.0 mm 976 W/m2
15:45 16.5 °C 6.3 °C 1010.2 hPa WSW 7.9 km/h 8 km/h 51% 0.0 mm 216 W/m2
15:50 16.8 °C 6.6 °C 1010.2 hPa West 11.1 km/h 14.5 km/h 51% 0.0 mm 951 W/m2
15:55 16.8 °C 6.3 °C 1010.2 hPa WNW 6.4 km/h 11.3 km/h 50% 0.0 mm 199 W/m2
16:00 16.7 °C 6.8 °C 1010.2 hPa West 4.7 km/h 6.4 km/h 52% 0.0 mm 949 W/m2
16:05 17.1 °C 7.4 °C 1010.2 hPa WNW 1.4 km/h 11.3 km/h 53% 0.0 mm 970 W/m2
16:10 17.3 °C 6.5 °C 1010.2 hPa WSW 11.1 km/h 17.7 km/h 49% 0.0 mm 306 W/m2
16:15 17.2 °C 6.7 °C 1010.2 hPa WNW 6.4 km/h 9.7 km/h 50% 0.0 mm 983 W/m2
16:20 17.2 °C 6.4 °C 1010.2 hPa WSW 3.2 km/h 17.7 km/h 49% 0.0 mm 802 W/m2
16:25 17.3 °C 7.1 °C 1009.8 hPa WNW 1.4 km/h 4.8 km/h 51% 0.0 mm 809 W/m2
16:30 17.6 °C 6.2 °C 1009.8 hPa ESE 6.4 km/h 9.7 km/h 47% 0.0 mm 141 W/m2
16:35 17.4 °C 5.7 °C 1010.2 hPa WNW 1.4 km/h 9.7 km/h 46% 0.0 mm 179 W/m2
16:40 17.1 °C 6 °C 1009.8 hPa WNW 1.4 km/h 6.4 km/h 48% 0.0 mm 851 W/m2
16:45 16.8 °C 6 °C 1009.8 hPa West 4.7 km/h 4.8 km/h 49% 0.0 mm 160 W/m2
16:50 16.6 °C 6.1 °C 1009.8 hPa West 6.4 km/h 12.9 km/h 50% 0.0 mm 190 W/m2
16:55 16.3 °C 5.9 °C 1009.8 hPa Calm   6.4 km/h 50% 0.0 mm 211 W/m2
17:00 16.3 °C 6.1 °C 1009.8 hPa NNW 11.3 km/h 11.3 km/h 51% 0.0 mm 287 W/m2
17:05 16.6 °C 6.4 °C 1009.8 hPa WNW 1.4 km/h 6.4 km/h 51% 0.0 mm 381 W/m2
17:10 16.8 °C 6.6 °C 1009.8 hPa WNW 3.2 km/h 6.4 km/h 51% 0.0 mm 619 W/m2
17:15 16.9 °C 6.4 °C 1009.5 hPa NW 3.2 km/h 6.4 km/h 50% 0.0 mm 239 W/m2
17:20 16.9 °C 6.7 °C 1009.5 hPa WNW 4.7 km/h 4.8 km/h 51% 0.0 mm 728 W/m2
17:25 17.3 °C 6.8 °C 1009.5 hPa WNW 7.9 km/h 8 km/h 50% 0.0 mm 304 W/m2
17:30 17.3 °C 6.5 °C 1009.5 hPa NNE 3.2 km/h 3.2 km/h 49% 0.0 mm 719 W/m2
17:35 17.3 °C 6.5 °C 1009.5 hPa NW 1.4 km/h 4.8 km/h 49% 0.0 mm 174 W/m2
17:40 17.2 °C 6.7 °C 1009.5 hPa WSW 4.7 km/h 6.4 km/h 50% 0.0 mm 234 W/m2
17:45 17.1 °C 6.6 °C 1009.5 hPa West 3.2 km/h 8 km/h 50% 0.0 mm 230 W/m2
17:50 17.2 °C 6.7 °C 1009.5 hPa SSW 1.4 km/h 8 km/h 50% 0.0 mm 654 W/m2
17:55 17.4 °C 6.9 °C 1009.5 hPa ESE 1.4 km/h 9.7 km/h 50% 0.0 mm 596 W/m2
18:01 17.6 °C 6.8 °C 1009.5 hPa WNW 6.4 km/h 6.4 km/h 49% 0.0 mm 550 W/m2
18:06 17.7 °C 6.5 °C 1009.1 hPa West 1.4 km/h 9.7 km/h 48% 0.0 mm 538 W/m2
18:11 17.7 °C 6.2 °C 1009.1 hPa SSW 3.2 km/h 9.7 km/h 47% 0.0 mm 265 W/m2
18:16 17.4 °C 6.6 °C 1009.1 hPa WNW 3.2 km/h 6.4 km/h 49% 0.0 mm 490 W/m2
18:21 17.2 °C 6.4 °C 1009.1 hPa West 3.2 km/h 6.4 km/h 49% 0.0 mm 125 W/m2
18:26 17 °C 6.2 °C 1009.1 hPa West 6.4 km/h 9.7 km/h 49% 0.0 mm 146 W/m2
18:31 16.8 °C 6.3 °C 1009.1 hPa WNW 4.7 km/h 6.4 km/h 50% 0.0 mm 132 W/m2
18:36 16.5 °C 6.3 °C 1009.1 hPa West 3.2 km/h 4.8 km/h 51% 0.0 mm 130 W/m2
18:41 16.4 °C 6.2 °C 1009.1 hPa SW 1.4 km/h 8 km/h 51% 0.0 mm 111 W/m2
18:46 16.3 °C 6.4 °C 1009.1 hPa West 1.4 km/h 6.4 km/h 52% 0.0 mm 146 W/m2
18:51 16.3 °C 6.4 °C 1009.1 hPa WSW 3.2 km/h 8 km/h 52% 0.0 mm 128 W/m2
18:56 16.3 °C 6.4 °C 1009.1 hPa West 1.4 km/h 6.4 km/h 52% 0.0 mm 338 W/m2
19:01 16.4 °C 6.8 °C 1009.1 hPa West 6.4 km/h 6.4 km/h 53% 0.0 mm 146 W/m2
19:06 16.3 °C 7 °C 1009.1 hPa WSW 1.4 km/h 4.8 km/h 54% 0.0 mm 193 W/m2
19:11 16.4 °C 7.1 °C 1009.1 hPa Calm   3.2 km/h 54% 0.0 mm 128 W/m2
19:16 16.4 °C 6.8 °C 1009.1 hPa Calm   3.2 km/h 53% 0.0 mm 102 W/m2
19:21 16.4 °C 6.8 °C 1009.1 hPa Calm   3.2 km/h 53% 0.0 mm 102 W/m2
19:26 16.6 °C 7 °C 1009.1 hPa West 1.4 km/h 4.8 km/h 53% 0.0 mm 281 W/m2
19:31 17.1 °C 6.9 °C 1009.1 hPa WNW 3.2 km/h 3.2 km/h 51% 0.0 mm 200 W/m2
19:36 17.3 °C 6.5 °C 1009.1 hPa WSW 1.4 km/h 4.8 km/h 49% 0.0 mm 274 W/m2
19:41 17.4 °C 6.6 °C 1009.1 hPa Calm   1.6 km/h 49% 0.0 mm 243 W/m2
19:46 17.4 °C 6.9 °C 1009.1 hPa West 1.4 km/h 3.2 km/h 50% 0.0 mm 206 W/m2
19:51 17.4 °C 6.6 °C 1009.1 hPa Calm   4.8 km/h 49% 0.0 mm 146 W/m2
19:56 17.4 °C 6.9 °C 1009.1 hPa WSW 1.4 km/h 3.2 km/h 50% 0.0 mm 118 W/m2
20:01 17.4 °C 6.3 °C 1009.1 hPa Calm   4.8 km/h 48% 0.0 mm 53 W/m2
20:06 17.2 °C 6.4 °C 1009.1 hPa WNW 3.2 km/h 3.2 km/h 49% 0.0 mm 88 W/m2
20:11 17.1 °C 6.9 °C 1009.1 hPa Calm   4.8 km/h 51% 0.0 mm 86 W/m2
20:16 16.9 °C 7.8 °C 1009.1 hPa Calm     55% 0.0 mm 81 W/m2
20:21 16.9 °C 8.1 °C 1009.1 hPa Calm   3.2 km/h 56% 0.0 mm 69 W/m2
20:26 16.9 °C 8.1 °C 1009.1 hPa Calm   1.6 km/h 56% 0.0 mm 37 W/m2
20:31 16.7 °C 8.1 °C 1009.1 hPa Calm     57% 0.0 mm 33 W/m2
20:36 16.4 °C 8.1 °C 1009.1 hPa Calm   1.6 km/h 58% 0.0 mm 30 W/m2
20:41 16.1 °C 7.8 °C 1009.1 hPa Calm     58% 0.0 mm 26 W/m2
20:46 15.8 °C 7.8 °C 1009.1 hPa Calm     59% 0.0 mm 19 W/m2
20:51 15.4 °C 7.4 °C 1009.1 hPa Calm     59% 0.0 mm 12 W/m2
20:56 15.1 °C 7.4 °C 1009.1 hPa Calm     60% 0.0 mm 7 W/m2
21:01 14.7 °C 7.3 °C 1009.1 hPa Calm     61% 0.0 mm 7 W/m2
21:06 14.4 °C 7.2 °C 1009.1 hPa Calm     62% 0.0 mm 7 W/m2
21:11 14.1 °C 7.2 °C 1009.1 hPa Calm     63% 0.0 mm 0 W/m2
21:16 13.8 °C 7.1 °C 1009.1 hPa West 1.4 km/h 1.6 km/h 64% 0.0 mm 0 W/m2
21:21 13.5 °C 7 °C 1009.1 hPa WSW 1.4 km/h 3.2 km/h 65% 0.0 mm 0 W/m2
21:26 13.3 °C 6.9 °C 1009.1 hPa West 1.4 km/h 3.2 km/h 65% 0.0 mm 0 W/m2
21:31 13.2 °C 6.8 °C 1009.1 hPa Calm   1.6 km/h 65% 0.0 mm 0 W/m2
21:36 13.1 °C 6.9 °C 1009.1 hPa Calm   1.6 km/h 66% 0.0 mm 0 W/m2
21:41 12.9 °C 6.9 °C 1009.1 hPa Calm   3.2 km/h 67% 0.0 mm 0 W/m2
21:46 12.8 °C 7 °C 1009.1 hPa Calm   1.6 km/h 68% 0.0 mm 0 W/m2
21:51 12.6 °C 7.1 °C 1009.1 hPa West 1.4 km/h 3.2 km/h 69% 0.0 mm 0 W/m2
21:56 12.3 °C 7 °C 1009.1 hPa West 1.4 km/h 3.2 km/h 70% 0.0 mm 0 W/m2
22:01 12.1 °C 6.8 °C 1009.5 hPa Calm     70% 0.0 mm 0 W/m2
22:06 11.9 °C 6.8 °C 1009.5 hPa Calm   3.2 km/h 71% 0.0 mm 0 W/m2
22:11 11.7 °C 6.8 °C 1009.5 hPa Calm     72% 0.0 mm 0 W/m2
22:16 11.6 °C 6.7 °C 1009.1 hPa Calm     72% 0.0 mm 0 W/m2
22:21 11.3 °C 6.4 °C 1009.1 hPa Calm   1.6 km/h 72% 0.0 mm 0 W/m2
22:26 11.2 °C 6.5 °C 1009.1 hPa Calm     73% 0.0 mm 0 W/m2
22:31 10.9 °C 6.4 °C 1009.1 hPa Calm     74% 0.0 mm 0 W/m2
22:37 10.7 °C 6.3 °C 1009.1 hPa Calm     74% 0.0 mm 0 W/m2
22:42 10.6 °C 6.5 °C 1009.1 hPa Calm     76% 0.0 mm 0 W/m2
22:47 10.4 °C 6.4 °C 1009.1 hPa Calm     76% 0.0 mm 0 W/m2
22:52 10.3 °C 6.4 °C 1009.1 hPa Calm     77% 0.0 mm 0 W/m2
22:57 10.2 °C 6.3 °C 1009.1 hPa Calm     77% 0.0 mm 0 W/m2
23:02 10 °C 6.2 °C 1009.1 hPa Calm     77% 0.0 mm 0 W/m2
23:07 9.9 °C 6.1 °C 1009.1 hPa Calm     77% 0.0 mm 0 W/m2
23:12 9.8 °C 6.1 °C 1009.1 hPa Calm     78% 0.0 mm 0 W/m2
23:17 9.7 °C 6 °C 1009.1 hPa Calm     78% 0.0 mm 0 W/m2
23:22 9.7 °C 6 °C 1008.8 hPa West 1.4 km/h 1.6 km/h 78% 0.0 mm 0 W/m2
23:27 9.6 °C 6 °C 1008.8 hPa Calm     78% 0.0 mm 0 W/m2
23:32 9.6 °C 6 °C 1008.8 hPa Calm     78% 0.0 mm 0 W/m2
23:37 9.4 °C 5.8 °C 1008.8 hPa Calm     78% 0.0 mm 0 W/m2
23:42 9.3 °C 5.7 °C 1008.8 hPa Calm     78% 0.0 mm 0 W/m2
23:47 9.2 °C 5.7 °C 1008.8 hPa Calm     79% 0.0 mm 0 W/m2
23:52 9.1 °C 5.7 °C 1008.8 hPa Calm     79% 0.0 mm 0 W/m2
23:57 9 °C 5.7 °C 1008.8 hPa Calm   1.6 km/h 80% 0.0 mm 0 W/m2
Juneau County Weather
Compliments of Weather Underground - 2 mb